createdAt,value
2023-03-17T00:00:47.683Z,54.46
2023-03-17T00:03:26.012Z,56.71
2023-03-17T00:05:57.593Z,59.57
2023-03-17T00:08:27.989Z,66.95
2023-03-17T00:10:55.977Z,66.84
2023-03-17T00:13:24.137Z,59.61
2023-03-17T00:16:03.604Z,53.17
2023-03-17T00:18:31.945Z,55.17
2023-03-17T00:20:58.966Z,57.98
2023-03-17T00:23:26.536Z,61.87
2023-03-17T00:25:54.501Z,69.19
2023-03-17T00:28:27.607Z,64.82
2023-03-17T00:31:01.284Z,56.04
2023-03-17T00:33:30.693Z,56.14
2023-03-17T00:35:58.992Z,59.68
2023-03-17T00:38:26.026Z,66.55
2023-03-17T00:40:52.853Z,65.02
2023-03-17T00:43:22.156Z,58.93
2023-03-17T00:45:49.653Z,54.41
2023-03-17T00:48:19.895Z,56.51
2023-03-17T00:50:50.643Z,58.08
2023-03-17T00:53:19.645Z,61.62
2023-03-17T00:55:48.056Z,70.09
2023-03-17T00:58:25.897Z,65.12
2023-03-17T01:00:53.821Z,59.79
2023-03-17T01:03:21.433Z,57.61
2023-03-17T01:05:50.207Z,60.47
2023-03-17T01:08:18.545Z,66.04
2023-03-17T01:10:45.373Z,64.99
2023-03-17T01:13:13.798Z,61.32
2023-03-17T01:15:47.587Z,58.01
2023-03-17T01:18:17.208Z,58.77
2023-03-17T01:20:44.460Z,61.36
2023-03-17T01:23:12.461Z,60.44
2023-03-17T01:25:41.578Z,68.32
2023-03-17T01:28:14.642Z,68.96
2023-03-17T01:30:43.909Z,63.99
2023-03-17T01:33:14.850Z,60.06
2023-03-17T01:35:44.046Z,54.83
2023-03-17T01:38:11.785Z,55.50
2023-03-17T01:40:45.812Z,59.21
2023-03-17T01:43:12.582Z,65.57
2023-03-17T01:46:17.350Z,65.79
2023-03-17T01:49:10.058Z,57.71
2023-03-17T01:51:46.495Z,56.09
2023-03-17T01:54:35.959Z,59.97
2023-03-17T01:57:10.750Z,66.72
2023-03-17T01:59:44.523Z,64.43
2023-03-17T02:02:16.226Z,59.44
2023-03-17T02:04:43.216Z,56.54
2023-03-17T02:07:11.427Z,59.29
2023-03-17T02:09:41.565Z,62.11
2023-03-17T02:12:10.451Z,68.27
2023-03-17T02:14:37.597Z,68.08
2023-03-17T02:17:10.791Z,60.81
2023-03-17T02:19:39.033Z,53.97
2023-03-17T02:22:06.061Z,55.77
2023-03-17T02:24:48.770Z,58.60
2023-03-17T02:27:24.391Z,61.80
2023-03-17T02:29:53.767Z,69.90
2023-03-17T02:32:20.618Z,66.24
2023-03-17T02:34:48.527Z,60.07
2023-03-17T02:37:17.281Z,53.64
2023-03-17T02:39:44.501Z,55.16
2023-03-17T02:42:12.796Z,58.51
2023-03-17T02:44:40.629Z,61.64
2023-03-17T02:47:08.708Z,68.71
2023-03-17T02:49:37.343Z,66.92
2023-03-17T02:52:05.220Z,61.02
2023-03-17T02:54:32.303Z,55.68
2023-03-17T02:56:59.822Z,56.59
2023-03-17T02:59:27.128Z,59.62
2023-03-17T03:01:53.998Z,65.85
2023-03-17T03:04:20.892Z,65.56
2023-03-17T03:06:48.123Z,61.55
2023-03-17T03:09:15.534Z,60.06
2023-03-17T03:11:43.038Z,57.50
2023-03-17T03:14:10.615Z,58.12
2023-03-17T03:16:38.557Z,60.34
2023-03-17T03:19:07.108Z,66.75
2023-03-17T03:21:34.150Z,66.62
2023-03-17T03:24:01.321Z,63.02
2023-03-17T03:26:28.489Z,60.90
2023-03-17T03:28:57.421Z,57.93
2023-03-17T03:31:25.073Z,57.96
2023-03-17T03:33:51.935Z,59.85
2023-03-17T03:36:19.037Z,64.69
2023-03-17T03:38:45.922Z,67.30
2023-03-17T03:41:13.225Z,64.65
2023-03-17T03:43:40.198Z,61.57
2023-03-17T03:46:07.611Z,57.92
2023-03-17T03:48:34.463Z,57.32
2023-03-17T03:51:02.507Z,59.57
2023-03-17T03:53:30.129Z,64.74
2023-03-17T03:55:57.067Z,66.64
2023-03-17T03:58:23.859Z,65.10
2023-03-17T04:00:51.261Z,59.73
2023-03-17T04:03:18.150Z,55.04
2023-03-17T04:05:45.050Z,56.29
2023-03-17T04:08:12.013Z,59.95
2023-03-17T04:10:38.889Z,64.48
2023-03-17T04:13:05.768Z,66.63
2023-03-17T04:15:33.141Z,63.54
2023-03-17T04:17:59.954Z,61.38
2023-03-17T04:20:26.831Z,60.05
2023-03-17T04:22:53.713Z,58.32
2023-03-17T04:25:20.660Z,59.02
2023-03-17T04:27:47.524Z,62.11
2023-03-17T04:30:16.782Z,66.85
2023-03-17T04:32:44.883Z,67.99
2023-03-17T04:35:17.799Z,65.26
2023-03-17T04:37:44.768Z,62.87
2023-03-17T04:40:13.531Z,61.34
2023-03-17T04:42:40.719Z,60.00
2023-03-17T04:45:15.584Z,58.04
2023-03-17T04:47:42.477Z,58.29
2023-03-17T04:50:12.053Z,60.77
2023-03-17T04:52:39.048Z,65.73
2023-03-17T04:55:08.456Z,67.94
2023-03-17T04:57:36.860Z,66.19
2023-03-17T05:00:06.119Z,64.64
2023-03-17T05:02:33.093Z,59.08
2023-03-17T05:05:00.012Z,53.02
2023-03-17T05:07:26.853Z,55.38
2023-03-17T05:09:53.710Z,59.19
2023-03-17T05:12:20.686Z,61.92
2023-03-17T05:14:47.512Z,68.92
2023-03-17T05:17:14.688Z,65.29
2023-03-17T05:19:41.490Z,61.20
2023-03-17T05:22:08.427Z,57.26
2023-03-17T05:24:35.259Z,57.98
2023-03-17T05:27:02.057Z,60.80
2023-03-17T05:29:29.004Z,66.61
2023-03-17T05:31:55.891Z,66.53
2023-03-17T05:34:22.944Z,60.32
2023-03-17T05:36:50.602Z,53.00
2023-03-17T05:39:17.685Z,54.45
2023-03-17T05:41:44.570Z,58.14
2023-03-17T05:44:11.468Z,62.55
2023-03-17T05:46:38.287Z,65.90
2023-03-17T05:49:05.205Z,56.33
2023-03-17T05:51:32.166Z,51.11
2023-03-17T05:53:59.020Z,50.55
2023-03-17T05:56:33.445Z,51.22
2023-03-17T05:59:01.915Z,50.96
2023-03-17T06:01:29.710Z,50.28
2023-03-17T06:03:56.769Z,48.64
2023-03-17T06:06:24.764Z,47.77
2023-03-17T06:08:51.852Z,46.85
2023-03-17T06:11:21.276Z,45.69
2023-03-17T06:13:48.551Z,44.72
2023-03-17T06:16:15.871Z,43.34
2023-03-17T06:18:42.920Z,41.90
2023-03-17T06:21:09.780Z,40.93
2023-03-17T06:23:36.731Z,40.10
2023-03-17T06:26:05.286Z,38.91
2023-03-17T06:28:32.350Z,38.94
2023-03-17T06:30:59.356Z,37.30
2023-03-17T06:33:26.345Z,37.01
2023-03-17T06:35:53.510Z,36.97
2023-03-17T06:38:20.970Z,37.15
2023-03-17T06:40:48.935Z,36.08
2023-03-17T06:43:15.832Z,34.88
2023-03-17T06:45:42.735Z,34.56
2023-03-17T06:48:09.608Z,36.39
2023-03-17T06:54:02.332Z,40.29
2023-03-17T06:56:30.509Z,42.74
2023-03-17T06:58:58.452Z,44.64
2023-03-17T07:01:27.570Z,46.01
2023-03-17T07:03:54.798Z,43.88
2023-03-17T07:06:23.510Z,42.50
2023-03-17T07:08:51.106Z,42.62
2023-03-17T07:11:17.997Z,43.88
2023-03-17T07:13:45.403Z,45.55
2023-03-17T07:16:14.067Z,47.15
2023-03-17T07:18:40.962Z,48.83
2023-03-17T07:21:08.164Z,49.89
2023-03-17T07:23:35.303Z,50.75
2023-03-17T07:26:02.690Z,51.45
2023-03-17T07:28:29.752Z,51.97
2023-03-17T07:30:58.205Z,52.75
2023-03-17T07:33:25.422Z,53.64
2023-03-17T07:35:54.358Z,54.83
2023-03-17T07:38:22.091Z,55.59
2023-03-17T07:40:49.408Z,56.15
2023-03-17T07:43:17.060Z,56.23
2023-03-17T07:45:44.966Z,55.82
2023-03-17T07:48:11.881Z,54.98
2023-03-17T07:50:39.056Z,53.75
2023-03-17T07:53:06.366Z,50.71
2023-03-17T07:57:32.886Z,42.46
2023-03-17T07:59:59.969Z,38.85
2023-03-17T08:02:27.142Z,35.81
2023-03-17T08:04:54.137Z,35.13
2023-03-17T08:07:21.031Z,34.12
2023-03-17T08:09:48.383Z,32.17
2023-03-17T08:12:15.384Z,31.82
2023-03-17T08:14:42.457Z,30.95
2023-03-17T08:17:09.496Z,30.28
2023-03-17T08:19:36.558Z,29.97
2023-03-17T08:22:03.513Z,28.82
2023-03-17T08:24:30.433Z,28.03
2023-03-17T08:26:59.752Z,27.55
2023-03-17T08:29:29.252Z,27.64
2023-03-17T08:31:57.474Z,27.26
2023-03-17T08:34:24.511Z,26.62
2023-03-17T08:36:51.849Z,26.47
2023-03-17T08:39:19.673Z,26.86
2023-03-17T08:41:47.146Z,26.98
2023-03-17T08:44:14.906Z,26.49
2023-03-17T08:46:42.012Z,26.73
2023-03-17T08:49:10.650Z,25.96
2023-03-17T08:51:38.827Z,25.64
2023-03-17T08:54:07.017Z,25.52
2023-03-17T08:56:34.468Z,25.78
2023-03-17T08:59:01.396Z,25.07
2023-03-17T09:01:28.403Z,24.60
2023-03-17T09:03:56.165Z,24.73
2023-03-17T09:06:23.713Z,24.62
2023-03-17T09:08:55.666Z,23.83
2023-03-17T09:11:29.444Z,23.71
2023-03-17T09:13:56.629Z,23.01
2023-03-17T09:16:24.913Z,22.64
2023-03-17T09:18:52.142Z,22.46
2023-03-17T09:21:19.499Z,20.91
2023-03-17T09:23:47.103Z,19.24
2023-03-17T09:26:14.064Z,18.79
2023-03-17T09:28:40.975Z,18.60
2023-03-17T09:31:11.771Z,18.40
2023-03-17T09:33:39.924Z,18.79
2023-03-17T09:36:08.132Z,19.32
2023-03-17T09:38:36.244Z,19.60
2023-03-17T09:41:23.977Z,19.66
2023-03-17T09:44:18.137Z,19.01
2023-03-17T09:46:48.038Z,19.46
2023-03-17T09:49:25.329Z,18.92
2023-03-17T09:51:53.493Z,18.94
2023-03-17T09:54:23.084Z,19.55
2023-03-17T09:57:01.890Z,18.47
2023-03-17T09:59:40.698Z,18.77
2023-03-17T10:02:17.527Z,19.72
2023-03-17T10:04:47.174Z,18.87
2023-03-17T10:07:20.562Z,19.17
2023-03-17T10:10:01.041Z,19.46
2023-03-17T10:12:54.017Z,19.82
2023-03-17T10:15:28.049Z,19.15
2023-03-17T10:17:55.008Z,19.71
2023-03-17T10:20:36.561Z,19.78
2023-03-17T10:23:07.312Z,20.20
2023-03-17T10:25:36.605Z,20.72
2023-03-17T10:28:12.468Z,21.41
2023-03-17T10:30:40.052Z,22.14
2023-03-17T10:33:07.327Z,22.67
2023-03-17T10:35:36.746Z,22.34
2023-03-17T10:38:20.049Z,22.12
2023-03-17T10:41:09.987Z,21.73
2023-03-17T10:43:50.787Z,21.31
2023-03-17T10:46:25.962Z,20.76
2023-03-17T10:49:17.032Z,20.67
2023-03-17T10:51:46.772Z,21.09
2023-03-17T10:54:18.072Z,20.99
2023-03-17T10:56:49.135Z,20.36
2023-03-17T10:59:44.333Z,19.56
2023-03-17T11:02:24.384Z,19.74
2023-03-17T11:04:55.886Z,19.16
2023-03-17T11:07:38.325Z,19.37
2023-03-17T11:10:24.826Z,19.52
2023-03-17T11:13:00.691Z,20.67
2023-03-17T11:15:37.252Z,21.29
2023-03-17T11:18:14.078Z,21.42
2023-03-17T11:20:47.064Z,19.47
2023-03-17T11:23:48.401Z,19.38
2023-03-17T11:26:46.630Z,18.64
2023-03-17T11:29:24.634Z,18.46
2023-03-17T11:32:12.151Z,18.50
2023-03-17T11:35:27.457Z,18.44
2023-03-17T11:38:24.861Z,18.76
2023-03-17T11:41:09.177Z,19.42
2023-03-17T11:43:59.695Z,19.99
2023-03-17T11:47:03.282Z,20.62
2023-03-17T11:49:38.993Z,20.76
2023-03-17T11:52:11.441Z,20.51
2023-03-17T11:54:47.594Z,20.53
2023-03-17T11:57:24.066Z,20.94
2023-03-17T12:00:04.214Z,20.95
2023-03-17T12:02:45.761Z,21.65
2023-03-17T12:05:38.602Z,22.46
2023-03-17T12:08:14.255Z,22.81
2023-03-17T12:10:49.643Z,23.16
2023-03-17T12:13:19.590Z,23.70
2023-03-17T12:16:06.866Z,24.78
2023-03-17T12:18:52.944Z,24.89
2023-03-17T12:21:33.037Z,25.42
2023-03-17T12:24:05.968Z,24.98
2023-03-17T12:26:32.831Z,25.19
2023-03-17T12:29:07.135Z,25.62
2023-03-17T12:31:58.801Z,25.70
2023-03-17T12:34:42.075Z,26.22
2023-03-17T12:37:09.945Z,26.00
2023-03-17T12:39:38.097Z,26.51
2023-03-17T12:42:21.976Z,27.40
2023-03-17T12:45:27.745Z,27.68
2023-03-17T12:48:23.926Z,27.46
2023-03-17T12:50:50.888Z,27.96
2023-03-17T12:53:53.207Z,27.79
2023-03-17T12:56:32.316Z,28.37
2023-03-17T12:59:06.354Z,28.64
2023-03-17T13:01:39.066Z,28.77
2023-03-17T13:04:08.774Z,29.59
2023-03-17T13:07:14.677Z,29.78
2023-03-17T13:09:45.302Z,30.52
2023-03-17T13:12:37.140Z,30.77
2023-03-17T13:15:47.227Z,31.14
2023-03-17T13:18:14.088Z,30.64
2023-03-17T13:20:51.736Z,30.16
2023-03-17T13:23:23.900Z,29.79
2023-03-17T13:25:53.905Z,29.88
2023-03-17T13:28:42.052Z,30.11
2023-03-17T13:31:27.268Z,30.14
2023-03-17T13:33:57.775Z,29.57
2023-03-17T13:36:40.094Z,28.41
2023-03-17T13:39:29.656Z,28.89
2023-03-17T13:42:18.817Z,28.61
2023-03-17T13:45:09.526Z,28.99
2023-03-17T13:47:44.512Z,28.38
2023-03-17T13:50:31.197Z,27.82
2023-03-17T13:53:03.810Z,27.80
2023-03-17T13:55:37.273Z,27.93
2023-03-17T13:58:11.832Z,29.39
2023-03-17T14:00:42.571Z,30.78
2023-03-17T14:03:20.692Z,31.40
2023-03-17T14:05:50.935Z,32.24
2023-03-17T14:08:35.832Z,32.79
2023-03-17T14:11:09.022Z,33.82
2023-03-17T14:13:53.082Z,34.89
2023-03-17T14:16:30.419Z,34.77
2023-03-17T14:19:12.246Z,35.18
2023-03-17T14:21:39.109Z,36.04
2023-03-17T14:24:21.542Z,37.22
2023-03-17T14:26:50.631Z,37.92
2023-03-17T14:29:21.444Z,38.46
2023-03-17T14:32:02.545Z,39.03
2023-03-17T14:34:30.091Z,39.12
2023-03-17T14:37:04.851Z,39.04
2023-03-17T14:39:32.359Z,38.46
2023-03-17T14:42:05.252Z,39.42
2023-03-17T14:44:44.112Z,39.49
2023-03-17T14:47:32.717Z,38.87
2023-03-17T14:50:02.862Z,38.86
2023-03-17T14:52:33.102Z,39.72
2023-03-17T14:55:01.157Z,39.45
2023-03-17T14:57:33.163Z,39.91
2023-03-17T15:00:34.343Z,40.46
2023-03-17T15:03:05.531Z,40.23
2023-03-17T15:05:40.917Z,40.78
2023-03-17T15:08:36.538Z,41.14
2023-03-17T15:11:06.004Z,41.25
2023-03-17T15:13:36.716Z,41.51
2023-03-17T15:16:33.851Z,41.36
2023-03-17T15:19:17.369Z,41.40
2023-03-17T15:21:44.592Z,41.27
2023-03-17T15:24:52.105Z,41.81
2023-03-17T15:27:19.249Z,41.86
2023-03-17T15:29:47.562Z,42.12
2023-03-17T15:32:20.472Z,42.79
2023-03-17T15:34:48.868Z,43.59
2023-03-17T15:37:23.134Z,44.26
2023-03-17T15:39:51.581Z,44.95
2023-03-17T15:42:20.448Z,45.13
2023-03-17T15:44:47.595Z,44.91
2023-03-17T15:47:16.947Z,44.52
2023-03-17T15:49:45.052Z,44.58
2023-03-17T15:52:21.999Z,44.32
2023-03-17T15:54:49.748Z,44.23
2023-03-17T15:57:17.397Z,44.32
2023-03-17T15:59:45.168Z,44.31
2023-03-17T16:02:25.224Z,44.40
2023-03-17T16:04:52.670Z,44.25
2023-03-17T16:07:21.453Z,44.58
2023-03-17T16:09:49.031Z,44.59
2023-03-17T16:12:16.244Z,44.51
2023-03-17T16:14:43.225Z,44.58
2023-03-17T16:17:20.249Z,44.75
2023-03-17T16:19:48.171Z,45.31
2023-03-17T16:22:43.178Z,45.38
2023-03-17T16:25:30.979Z,45.80
2023-03-17T16:28:00.446Z,46.10
2023-03-17T16:30:33.107Z,46.14
2023-03-17T16:33:16.065Z,46.37
2023-03-17T16:35:43.752Z,46.47
2023-03-17T16:38:17.826Z,46.68
2023-03-17T16:40:52.010Z,47.13
2023-03-17T16:43:25.592Z,47.19
2023-03-17T16:45:55.719Z,47.39
2023-03-17T16:48:22.615Z,47.54
2023-03-17T16:50:50.561Z,47.84
2023-03-17T16:53:17.848Z,48.08
2023-03-17T16:55:46.091Z,48.44
2023-03-17T16:58:31.590Z,48.53
2023-03-17T17:01:06.529Z,49.17
2023-03-17T17:03:33.708Z,49.42
2023-03-17T17:06:00.614Z,49.83
2023-03-17T17:08:27.636Z,50.06
2023-03-17T17:10:54.586Z,50.05
2023-03-17T17:13:21.671Z,50.66
2023-03-17T17:15:49.055Z,50.83
2023-03-17T17:18:20.752Z,51.51
2023-03-17T17:20:49.327Z,52.26
2023-03-17T17:23:22.214Z,52.61
2023-03-17T17:25:50.478Z,52.37
2023-03-17T17:28:19.545Z,52.72
2023-03-17T17:30:48.244Z,52.64
2023-03-17T17:33:17.125Z,52.91
2023-03-17T17:35:45.223Z,53.77
2023-03-17T17:38:26.844Z,54.18
2023-03-17T17:40:56.107Z,54.38
2023-03-17T17:43:24.806Z,54.09
2023-03-17T17:45:52.158Z,54.21
2023-03-17T17:48:22.831Z,54.05
2023-03-17T17:50:51.288Z,54.47
2023-03-17T17:53:18.780Z,54.35
2023-03-17T17:55:48.409Z,54.95
2023-03-17T17:58:18.111Z,54.70
2023-03-17T18:00:45.502Z,55.01
2023-03-17T18:03:12.645Z,55.61
2023-03-17T18:05:40.063Z,56.06
2023-03-17T18:08:07.080Z,56.24
2023-03-17T18:10:34.739Z,56.16
2023-03-17T18:13:04.521Z,55.82
2023-03-17T18:15:31.921Z,56.32
2023-03-17T18:17:58.935Z,56.44
2023-03-17T18:20:26.486Z,56.83
2023-03-17T18:22:54.375Z,57.00
2023-03-17T18:25:21.461Z,56.74
2023-03-17T18:27:48.744Z,56.39
2023-03-17T18:30:25.326Z,56.92
2023-03-17T18:33:02.657Z,57.29
2023-03-17T18:35:29.793Z,57.30
2023-03-17T18:37:59.532Z,57.31
2023-03-17T18:40:26.647Z,57.18
2023-03-17T18:42:54.119Z,57.14
2023-03-17T18:45:21.652Z,56.91
2023-03-17T18:47:48.617Z,56.96
2023-03-17T18:50:16.650Z,56.74
2023-03-17T18:52:45.381Z,56.51
2023-03-17T18:55:13.882Z,56.33
2023-03-17T18:57:44.321Z,56.13
2023-03-17T19:00:14.628Z,55.82
2023-03-17T19:02:41.441Z,55.55
2023-03-17T19:05:10.748Z,55.52
2023-03-17T19:07:40.201Z,55.28
2023-03-17T19:10:08.842Z,55.16
2023-03-17T19:12:36.566Z,55.04
2023-03-17T19:15:04.514Z,54.82
2023-03-17T19:17:31.740Z,54.65
2023-03-17T19:19:58.983Z,54.76
2023-03-17T19:22:26.292Z,54.75
2023-03-17T19:24:53.656Z,54.67
2023-03-17T19:27:20.861Z,54.63
2023-03-17T19:29:47.854Z,54.63
2023-03-17T19:32:16.295Z,54.24
2023-03-17T19:34:43.286Z,54.08
2023-03-17T19:37:10.293Z,54.15
2023-03-17T19:39:38.135Z,53.85
2023-03-17T19:42:05.345Z,53.81
2023-03-17T19:44:32.509Z,53.50
2023-03-17T19:47:01.818Z,53.63
2023-03-17T19:49:28.873Z,53.28
2023-03-17T19:51:56.718Z,53.33
2023-03-17T19:54:23.696Z,53.09
2023-03-17T19:56:50.786Z,52.93
2023-03-17T19:59:19.821Z,52.69
2023-03-17T20:01:49.339Z,52.62
2023-03-17T20:04:22.052Z,52.75
2023-03-17T20:06:55.397Z,52.92
2023-03-17T20:09:24.977Z,52.85
2023-03-17T20:11:53.587Z,52.90
2023-03-17T20:14:21.102Z,52.93
2023-03-17T20:16:48.803Z,53.02
2023-03-17T20:19:16.947Z,53.06
2023-03-17T20:21:44.253Z,53.05
2023-03-17T20:24:12.927Z,53.19
2023-03-17T20:26:41.561Z,53.35
2023-03-17T20:29:08.635Z,53.20
2023-03-17T20:31:36.167Z,53.33
2023-03-17T20:34:03.547Z,53.37
2023-03-17T20:36:30.525Z,53.18
2023-03-17T20:38:58.741Z,53.19
2023-03-17T20:41:25.960Z,53.19
2023-03-17T20:43:53.462Z,53.23
2023-03-17T20:46:26.716Z,53.28
2023-03-17T20:48:59.057Z,53.51
2023-03-17T20:51:26.797Z,53.59
2023-03-17T20:53:55.353Z,53.79
2023-03-17T20:56:24.498Z,54.04
2023-03-17T20:58:53.425Z,53.96
2023-03-17T21:01:21.622Z,54.16
2023-03-17T21:03:49.858Z,54.19
2023-03-17T21:06:17.894Z,54.23
2023-03-17T21:08:46.273Z,54.28
2023-03-17T21:11:21.102Z,54.32
2023-03-17T21:13:48.037Z,54.52
2023-03-17T21:16:21.446Z,54.59
2023-03-17T21:18:48.986Z,54.62
2023-03-17T21:21:16.864Z,54.72
2023-03-17T21:23:44.294Z,54.79
2023-03-17T21:26:12.413Z,54.88
2023-03-17T21:28:41.526Z,54.90
2023-03-17T21:31:10.661Z,55.06
2023-03-17T21:33:38.246Z,55.01
2023-03-17T21:36:06.075Z,54.85
2023-03-17T21:38:33.188Z,54.81
2023-03-17T21:41:22.491Z,54.79
2023-03-17T21:43:49.538Z,54.85
2023-03-17T21:46:16.751Z,54.64
2023-03-17T21:48:44.227Z,54.75
2023-03-17T21:51:11.674Z,54.92
2023-03-17T21:53:39.412Z,54.95
2023-03-17T21:56:06.765Z,54.98
2023-03-17T21:58:35.311Z,54.80
2023-03-17T22:01:03.385Z,54.86
2023-03-17T22:03:32.371Z,54.67
2023-03-17T22:05:59.887Z,54.64
2023-03-17T22:08:26.958Z,54.58
2023-03-17T22:10:54.084Z,54.52
2023-03-17T22:13:21.226Z,54.48
2023-03-17T22:15:48.854Z,54.29
2023-03-17T22:18:16.091Z,54.26
2023-03-17T22:20:45.054Z,54.45
2023-03-17T22:23:12.086Z,54.12
2023-03-17T22:25:39.102Z,53.97
2023-03-17T22:28:06.641Z,53.82
2023-03-17T22:30:33.955Z,53.74
2023-03-17T22:33:01.245Z,53.91
2023-03-17T22:35:28.576Z,53.84
2023-03-17T22:37:55.470Z,53.90
2023-03-17T22:40:22.722Z,53.97
2023-03-17T22:42:49.626Z,53.94
2023-03-17T22:45:16.712Z,53.76
2023-03-17T22:47:43.799Z,53.55
2023-03-17T22:50:11.941Z,53.62
2023-03-17T22:52:38.859Z,53.66
2023-03-17T22:55:07.872Z,53.49
2023-03-17T22:57:35.271Z,53.49
2023-03-17T23:00:05.649Z,53.26
2023-03-17T23:02:32.625Z,53.30
2023-03-17T23:04:59.489Z,53.31
2023-03-17T23:07:27.696Z,53.10
2023-03-17T23:09:55.223Z,53.11
2023-03-17T23:12:24.633Z,52.94
2023-03-17T23:14:51.678Z,52.71
2023-03-17T23:17:18.886Z,52.59
2023-03-17T23:19:46.449Z,52.35
2023-03-17T23:22:13.279Z,52.57
2023-03-17T23:24:40.279Z,52.23
2023-03-17T23:27:07.194Z,52.30
2023-03-17T23:29:34.153Z,52.08
2023-03-17T23:32:01.398Z,52.11
2023-03-17T23:34:28.599Z,51.88
2023-03-17T23:36:55.570Z,51.68
2023-03-17T23:39:22.395Z,51.50
2023-03-17T23:41:49.603Z,51.66
2023-03-17T23:44:16.642Z,51.62
2023-03-17T23:46:45.284Z,51.60
2023-03-17T23:49:12.371Z,51.62
2023-03-17T23:51:39.320Z,51.62
2023-03-17T23:54:07.796Z,51.45
2023-03-17T23:56:35.032Z,51.34
2023-03-17T23:59:04.003Z,51.65
